Time;durP1;ratioP1;P1;durP2;ratioP2;P2;SDS_P1;SDS_P2;PMS_P1;PMS_P2;Temp;Humidity;BMP_temperature;BMP_pressure;BME280_temperature;BME280_humidity;BME280_pressure;Samples;Min_cycle;Max_cycle;Signal;HPM_P1;HPM_P2
2023/08/19 00:00:05;;;;;;;4.63;1.05;;;;;;;;;;1044363;28;20583;-75
2023/08/19 00:00:36;;;;;;;1.15;0.80;;;;;;;;;;1044859;28;20017;-75
2023/08/19 00:01:07;;;;;;;0.50;0.50;;;;;;;;;;1048491;28;20024;-75
2023/08/19 00:01:38;;;;;;;14.90;1.30;;;;;;;;;;1048693;28;20115;-75
2023/08/19 00:02:10;;;;;;;1.48;0.95;;;;;;;;;;1048509;28;20073;-75
2023/08/19 00:02:41;;;;;;;4.28;1.95;;;;;;;;;;1048612;28;20020;-76
2023/08/19 00:03:11;;;;;;;0.20;0.20;;;;;;;;;;1044448;28;20020;-75
2023/08/19 00:03:42;;;;;;;0.75;0.75;;;;;;;;;;1044582;28;20032;-77
2023/08/19 00:04:13;;;;;;;0.10;0.10;;;;;;;;;;1044777;28;20021;-77
2023/08/19 00:04:43;;;;;;;0.25;0.25;;;;;;;;;;1047986;28;20405;-77
2023/08/19 00:05:14;;;;;;;0.90;0.57;;;;;;;;;;1048347;28;20028;-77
2023/08/19 00:05:44;;;;;;;3.63;1.85;;;;;;;;;;1048612;28;20400;-75
2023/08/19 00:06:35;;;;;;;6.70;0.60;;;;;;;;;;1048543;28;20032;-75
2023/08/19 00:07:05;;;;;;;10.68;1.00;;;;;;;;;;1048325;28;20081;-76
2023/08/19 00:07:36;;;;;;;1.50;1.30;;;;;;;;;;1048986;28;20078;-75
2023/08/19 00:08:07;;;;;;;0.25;0.25;;;;;;;;;;1048422;28;20079;-75
2023/08/19 00:08:37;;;;;;;0.20;0.20;;;;;;;;;;1048695;28;20123;-75
2023/08/19 00:09:08;;;;;;;0.50;0.50;;;;;;;;;;1048491;28;20024;-75
2023/08/19 00:09:39;;;;;;;0.30;0.30;;;;;;;;;;1048782;28;20016;-76
2023/08/19 00:10:09;;;;;;;0.85;0.80;;;;;;;;;;1048442;28;20492;-75
2023/08/19 00:10:40;;;;;;;0.10;0.10;;;;;;;;;;1044434;28;20436;-76
2023/08/19 00:11:11;;;;;;;0.55;0.52;;;;;;;;;;1044423;28;20036;-76
2023/08/19 00:11:41;;;;;;;0.93;0.38;;;;;;;;;;1044559;28;20024;-76
2023/08/19 00:12:11;;;;;;;9.18;2.92;;;;;;;;;;1048578;28;20029;-76
2023/08/19 00:12:42;;;;;;;1.15;0.73;;;;;;;;;;1048632;28;20114;-75
2023/08/19 00:13:13;;;;;;;0.45;0.45;;;;;;;;;;1048611;28;20030;-75
2023/08/19 00:13:43;;;;;;;0.20;0.20;;;;;;;;;;1048937;28;20487;-75
2023/08/19 00:14:13;;;;;;;0.20;0.20;;;;;;;;;;1048895;28;20530;-75
2023/08/19 00:14:44;;;;;;;1.40;1.33;;;;;;;;;;1048933;28;20422;-76
2023/08/19 00:15:15;;;;;;;0.00;0.00;;;;;;;;;;1048521;28;20028;-76
2023/08/19 00:15:46;;;;;;;0.10;0.10;;;;;;;;;;1050667;28;20071;-75
2023/08/19 00:16:17;;;;;;;0.10;0.10;;;;;;;;;;1052735;28;20119;-75
2023/08/19 00:16:48;;;;;;;0.20;0.20;;;;;;;;;;1052639;28;20028;-75
2023/08/19 00:17:19;;;;;;;0.20;0.20;;;;;;;;;;1052693;28;20027;-75
2023/08/19 00:17:49;;;;;;;3.17;0.80;;;;;;;;;;1052812;28;20365;-75
2023/08/19 00:18:20;;;;;;;0.05;0.05;;;;;;;;;;1052787;28;20071;-75
2023/08/19 00:18:50;;;;;;;1.88;1.65;;;;;;;;;;1052701;28;20051;-75
2023/08/19 00:19:21;;;;;;;0.57;0.20;;;;;;;;;;1052776;28;20443;-75
2023/08/19 00:19:51;;;;;;;0.10;0.10;;;;;;;;;;1052829;28;20047;-77
2023/08/19 00:20:23;;;;;;;0.45;0.45;;;;;;;;;;1052808;28;20629;-77
2023/08/19 00:20:55;;;;;;;3.85;1.00;;;;;;;;;;1049337;28;20051;-77
2023/08/19 00:21:25;;;;;;;0.90;0.90;;;;;;;;;;1048668;28;20021;-77
2023/08/19 00:21:55;;;;;;;1.05;0.95;;;;;;;;;;1048531;28;20051;-77
2023/08/19 00:22:26;;;;;;;2.40;1.85;;;;;;;;;;1048613;28;20020;-77
2023/08/19 00:22:56;;;;;;;0.20;0.20;;;;;;;;;;1048486;28;20071;-77
2023/08/19 00:23:27;;;;;;;0.10;0.10;;;;;;;;;;1048673;28;20028;-75
2023/08/19 00:23:57;;;;;;;4.82;1.35;;;;;;;;;;1048521;28;20614;-77
2023/08/19 00:24:28;;;;;;;0.10;0.10;;;;;;;;;;1044432;28;20171;-75
2023/08/19 00:24:58;;;;;;;0.60;0.60;;;;;;;;;;1044325;28;20120;-75
2023/08/19 00:25:28;;;;;;;0.20;0.20;;;;;;;;;;1048686;28;20024;-75
2023/08/19 00:25:59;;;;;;;3.53;1.25;;;;;;;;;;1048444;28;20035;-75
2023/08/19 00:26:29;;;;;;;0.00;0.00;;;;;;;;;;1048966;28;20028;-76
2023/08/19 00:27:01;;;;;;;0.22;0.22;;;;;;;;;;1048299;28;20086;-76
2023/08/19 00:27:31;;;;;;;0.00;0.00;;;;;;;;;;1048694;28;20111;-77
2023/08/19 00:28:04;;;;;;;0.10;0.10;;;;;;;;;;1048391;28;20027;-77
2023/08/19 00:28:34;;;;;;;0.10;0.10;;;;;;;;;;1048708;28;20035;-77
2023/08/19 00:29:05;;;;;;;0.00;0.00;;;;;;;;;;1048376;28;20111;-77
2023/08/19 00:29:35;;;;;;;0.00;0.00;;;;;;;;;;1048644;28;20035;-76
2023/08/19 00:30:06;;;;;;;0.35;0.20;;;;;;;;;;1048465;28;20024;-76
2023/08/19 00:30:37;;;;;;;0.10;0.10;;;;;;;;;;1044446;28;20154;-76
2023/08/19 00:31:07;;;;;;;0.10;0.10;;;;;;;;;;1044251;28;20028;-77
2023/08/19 00:31:39;;;;;;;0.10;0.10;;;;;;;;;;1044573;28;20032;-77
2023/08/19 00:32:10;;;;;;;0.45;0.45;;;;;;;;;;1044265;28;20484;-77
2023/08/19 00:32:40;;;;;;;0.65;0.60;;;;;;;;;;1044700;28;20020;-77
2023/08/19 00:33:11;;;;;;;0.45;0.45;;;;;;;;;;1044299;28;20095;-77
2023/08/19 00:33:41;;;;;;;0.20;0.20;;;;;;;;;;1044422;28;20032;-77
2023/08/19 00:34:12;;;;;;;0.22;0.22;;;;;;;;;;1048522;28;20044;-77
2023/08/19 00:34:43;;;;;;;1.38;1.17;;;;;;;;;;1048528;28;20024;-75
2023/08/19 00:35:13;;;;;;;0.10;0.10;;;;;;;;;;1048502;28;20424;-75
2023/08/19 00:35:44;;;;;;;0.00;0.00;;;;;;;;;;1048727;28;20028;-75
2023/08/19 00:36:14;;;;;;;0.63;0.63;;;;;;;;;;1048773;28;20119;-75
2023/08/19 00:36:45;;;;;;;0.30;0.25;;;;;;;;;;1048363;28;20063;-75
2023/08/19 00:37:15;;;;;;;1.08;0.95;;;;;;;;;;1048456;28;20016;-75
2023/08/19 00:37:46;;;;;;;0.98;0.73;;;;;;;;;;1048478;28;20032;-76
2023/08/19 00:38:16;;;;;;;0.35;0.35;;;;;;;;;;1048533;28;20035;-76
2023/08/19 00:38:48;;;;;;;0.22;0.22;;;;;;;;;;1048289;28;20035;-77
2023/08/19 00:39:19;;;;;;;0.00;0.00;;;;;;;;;;1048454;28;20035;-77
2023/08/19 00:39:49;;;;;;;1.70;1.60;;;;;;;;;;1048357;28;20020;-77
2023/08/19 00:40:20;;;;;;;1.65;0.85;;;;;;;;;;1048569;28;20035;-77
2023/08/19 00:40:50;;;;;;;5.07;1.20;;;;;;;;;;1048320;28;20067;-77
2023/08/19 00:41:21;;;;;;;2.65;2.28;;;;;;;;;;1044317;28;20029;-75
2023/08/19 00:41:54;;;;;;;0.22;0.22;;;;;;;;;;1048505;28;20066;-76
2023/08/19 00:42:24;;;;;;;0.03;0.03;;;;;;;;;;1048490;28;20031;-77
2023/08/19 00:42:55;;;;;;;1.15;0.45;;;;;;;;;;1044628;28;20060;-77
2023/08/19 00:43:25;;;;;;;0.45;0.45;;;;;;;;;;1048427;28;20024;-77
2023/08/19 00:43:56;;;;;;;1.55;1.45;;;;;;;;;;1048413;28;20110;-77
2023/08/19 00:44:26;;;;;;;5.05;1.75;;;;;;;;;;1048701;28;20024;-76
2023/08/19 00:44:57;;;;;;;0.50;0.50;;;;;;;;;;1044114;28;20036;-75
2023/08/19 00:45:27;;;;;;;0.00;0.00;;;;;;;;;;1048629;28;20032;-75
2023/08/19 00:45:58;;;;;;;1.02;0.88;;;;;;;;;;1048289;28;20070;-75
2023/08/19 00:46:28;;;;;;;0.10;0.10;;;;;;;;;;1048620;28;20033;-75
2023/08/19 00:47:01;;;;;;;0.70;0.70;;;;;;;;;;1048275;28;20075;-76
2023/08/19 00:47:31;;;;;;;0.85;0.80;;;;;;;;;;1048422;28;20017;-77
2023/08/19 00:48:03;;;;;;;0.25;0.10;;;;;;;;;;1048377;28;20424;-76
2023/08/19 00:48:33;;;;;;;0.10;0.10;;;;;;;;;;1048391;28;20082;-77
2023/08/19 00:49:04;;;;;;;0.10;0.10;;;;;;;;;;1048088;28;20581;-76
2023/08/19 00:49:35;;;;;;;0.03;0.03;;;;;;;;;;1044420;28;20029;-76
2023/08/19 00:50:07;;;;;;;0.40;0.40;;;;;;;;;;1044298;28;20067;-77
2023/08/19 00:50:38;;;;;;;0.00;0.00;;;;;;;;;;1048475;28;20464;-76
2023/08/19 00:51:09;;;;;;;0.30;0.30;;;;;;;;;;1048309;28;20035;-76
2023/08/19 00:51:39;;;;;;;0.10;0.10;;;;;;;;;;1048443;28;20033;-76
2023/08/19 00:52:10;;;;;;;0.52;0.52;;;;;;;;;;1048357;28;20025;-76
2023/08/19 00:52:41;;;;;;;0.25;0.25;;;;;;;;;;1048476;28;20028;-77
2023/08/19 00:53:12;;;;;;;1.98;1.75;;;;;;;;;;1048776;28;20443;-77
2023/08/19 00:53:43;;;;;;;0.08;0.08;;;;;;;;;;1048696;28;20021;-77
2023/08/19 00:54:13;;;;;;;6.45;1.20;;;;;;;;;;1048387;28;20102;-75
2023/08/19 00:54:44;;;;;;;10.48;1.42;;;;;;;;;;1048444;28;20396;-75
2023/08/19 00:55:15;;;;;;;0.85;0.60;;;;;;;;;;1044197;28;20115;-75
2023/08/19 00:55:45;;;;;;;4.22;2.28;;;;;;;;;;1044343;28;20111;-76
2023/08/19 00:56:16;;;;;;;0.88;0.88;;;;;;;;;;1048459;28;20400;-75
2023/08/19 00:56:46;;;;;;;1.23;0.88;;;;;;;;;;1048380;28;20124;-76
2023/08/19 00:57:17;;;;;;;2.10;1.27;;;;;;;;;;1048660;28;20027;-77
2023/08/19 00:57:48;;;;;;;1.77;0.77;;;;;;;;;;1048720;28;20032;-77
2023/08/19 00:58:18;;;;;;;0.32;0.32;;;;;;;;;;1048729;28;20056;-77
2023/08/19 00:58:49;;;;;;;1.30;1.00;;;;;;;;;;1048764;28;20029;-75
2023/08/19 00:59:19;;;;;;;4.68;1.98;;;;;;;;;;1048766;28;20055;-76
2023/08/19 00:59:50;;;;;;;0.70;0.70;;;;;;;;;;1048658;28;20107;-76
2023/08/19 01:00:21;;;;;;;2.00;0.80;;;;;;;;;;1048716;28;20024;-76
2023/08/19 01:00:53;;;;;;;1.27;1.02;;;;;;;;;;1048618;28;20476;-76
2023/08/19 01:01:24;;;;;;;10.63;3.25;;;;;;;;;;1048310;28;20123;-76
2023/08/19 01:01:55;;;;;;;16.42;2.17;;;;;;;;;;1048315;28;20063;-77
2023/08/19 01:02:25;;;;;;;4.20;0.82;;;;;;;;;;1048390;28;20557;-75
2023/08/19 01:02:56;;;;;;;6.50;1.40;;;;;;;;;;1048147;28;20127;-75
2023/08/19 01:03:26;;;;;;;1.88;1.00;;;;;;;;;;1048401;28;20024;-75
2023/08/19 01:03:56;;;;;;;2.13;1.13;;;;;;;;;;1048240;28;20028;-75
2023/08/19 01:04:27;;;;;;;4.05;1.10;;;;;;;;;;1048417;28;20028;-75
2023/08/19 01:04:58;;;;;;;4.78;0.60;;;;;;;;;;1044203;28;20031;-76
2023/08/19 01:05:36;;;;;;;3.10;2.63;;;;;;;;;;1048366;28;20027;-75
2023/08/19 01:06:15;;;;;;;0.28;0.28;;;;;;;;;;1048415;28;20028;-75
2023/08/19 01:07:01;;;;;;;0.40;0.40;;;;;;;;;;1048704;28;20020;-75
2023/08/19 01:07:43;;;;;;;2.75;1.55;;;;;;;;;;1048764;28;20028;-75
2023/08/19 01:08:18;;;;;;;8.15;1.02;;;;;;;;;;1048281;28;20067;-75
2023/08/19 01:08:57;;;;;;;0.20;0.20;;;;;;;;;;1048363;28;20107;-75
2023/08/19 01:09:50;;;;;;;0.52;0.52;;;;;;;;;;1048362;28;20027;-75
2023/08/19 01:10:24;;;;;;;0.00;0.00;;;;;;;;;;1047971;28;20520;-75
2023/08/19 01:11:02;;;;;;;0.85;0.85;;;;;;;;;;1048169;28;20051;-75
2023/08/19 01:11:47;;;;;;;4.28;0.32;;;;;;;;;;1048345;28;20035;-76
2023/08/19 01:12:17;;;;;;;0.47;0.17;;;;;;;;;;1048455;28;20051;-76
2023/08/19 01:12:58;;;;;;;0.88;0.88;;;;;;;;;;1048349;28;20020;-76
2023/08/19 01:13:32;;;;;;;0.00;0.00;;;;;;;;;;1048736;28;20126;-76
2023/08/19 01:14:02;;;;;;;0.10;0.10;;;;;;;;;;1048173;28;20016;-77
2023/08/19 01:14:45;;;;;;;0.10;0.10;;;;;;;;;;1048441;28;20050;-77
2023/08/19 01:15:21;;;;;;;0.15;0.15;;;;;;;;;;1044169;28;20021;-77
2023/08/19 01:16:18;;;;;;;0.28;0.28;;;;;;;;;;1048990;28;20067;-77
2023/08/19 01:16:50;;;;;;;1.38;0.75;;;;;;;;;;1045670;28;20070;-77
2023/08/19 01:17:23;;;;;;;2.85;1.45;;;;;;;;;;1051691;23;20029;-76
2023/08/19 01:17:55;;;;;;;0.05;0.05;;;;;;;;;;1056064;28;21108;-76
2023/08/19 01:18:26;;;;;;;0.10;0.10;;;;;;;;;;1057300;27;20024;-77
2023/08/19 01:18:57;;;;;;;0.00;0.00;;;;;;;;;;1056995;27;20113;-77
2023/08/19 01:19:32;;;;;;;2.63;1.65;;;;;;;;;;1053851;28;20028;-77
2023/08/19 01:20:03;;;;;;;0.50;0.32;;;;;;;;;;1054714;28;20425;-75
2023/08/19 01:20:34;;;;;;;0.00;0.00;;;;;;;;;;1053776;28;20024;-75
2023/08/19 01:21:06;;;;;;;1.75;1.02;;;;;;;;;;1052666;28;20028;-76
2023/08/19 01:21:37;;;;;;;0.00;0.00;;;;;;;;;;1053952;28;20020;-76
2023/08/19 01:22:09;;;;;;;1.02;0.57;;;;;;;;;;1053230;28;20024;-76
2023/08/19 01:22:39;;;;;;;5.95;1.55;;;;;;;;;;1044647;28;20575;-77
2023/08/19 01:23:12;;;;;;;0.70;0.63;;;;;;;;;;1045588;28;20020;-77
2023/08/19 01:23:45;;;;;;;0.00;0.00;;;;;;;;;;1050199;28;20025;-76
2023/08/19 01:24:18;;;;;;;0.82;0.80;;;;;;;;;;1050349;28;20031;-76
2023/08/19 01:24:49;;;;;;;0.43;0.43;;;;;;;;;;1048365;28;20029;-76
2023/08/19 01:25:20;;;;;;;0.20;0.20;;;;;;;;;;1050124;28;20495;-76
2023/08/19 01:25:50;;;;;;;0.15;0.15;;;;;;;;;;1050976;28;20061;-76
2023/08/19 01:26:21;;;;;;;1.42;0.68;;;;;;;;;;1046038;28;20068;-76
2023/08/19 01:26:51;;;;;;;0.25;0.17;;;;;;;;;;1041880;28;20099;-76
2023/08/19 01:27:23;;;;;;;0.20;0.20;;;;;;;;;;1045948;28;20095;-76
2023/08/19 01:27:54;;;;;;;0.00;0.00;;;;;;;;;;1044329;28;20009;-76
2023/08/19 01:28:24;;;;;;;0.35;0.28;;;;;;;;;;1049046;28;20107;-76
2023/08/19 01:28:54;;;;;;;2.45;1.77;;;;;;;;;;1050407;28;20020;-77
2023/08/19 01:29:25;;;;;;;0.00;0.00;;;;;;;;;;1050581;28;20012;-75
2023/08/19 01:29:55;;;;;;;1.17;0.80;;;;;;;;;;1050411;28;20024;-76
2023/08/19 01:30:28;;;;;;;0.05;0.05;;;;;;;;;;1050757;28;20095;-76
2023/08/19 01:30:59;;;;;;;0.55;0.47;;;;;;;;;;1050466;28;20031;-75
2023/08/19 01:31:29;;;;;;;2.03;1.00;;;;;;;;;;1050316;28;20062;-76
2023/08/19 01:32:00;;;;;;;0.13;0.13;;;;;;;;;;1049744;28;20013;-75
2023/08/19 01:32:32;;;;;;;0.03;0.03;;;;;;;;;;1050573;28;20107;-75
2023/08/19 01:33:03;;;;;;;0.55;0.55;;;;;;;;;;1050396;28;20481;-75
2023/08/19 01:33:33;;;;;;;1.85;1.55;;;;;;;;;;1050502;28;20028;-75
2023/08/19 01:34:04;;;;;;;0.63;0.52;;;;;;;;;;1050413;28;20047;-75
2023/08/19 01:34:34;;;;;;;0.30;0.30;;;;;;;;;;1048568;28;20108;-75
2023/08/19 01:35:05;;;;;;;0.43;0.38;;;;;;;;;;1050341;28;20025;-75
2023/08/19 01:35:38;;;;;;;0.00;0.00;;;;;;;;;;1048829;28;20032;-76
2023/08/19 01:36:25;;;;;;;0.63;0.43;;;;;;;;;;1048599;28;20029;-77
2023/08/19 01:36:59;;;;;;;0.20;0.20;;;;;;;;;;1044683;28;20056;-76
2023/08/19 01:37:35;;;;;;;0.22;0.10;;;;;;;;;;1041239;28;20152;-76
2023/08/19 01:38:09;;;;;;;0.00;0.00;;;;;;;;;;1045367;28;20025;-75
2023/08/19 01:38:44;;;;;;;0.00;0.00;;;;;;;;;;1046080;28;20062;-75
2023/08/19 01:39:14;;;;;;;0.10;0.10;;;;;;;;;;1047755;28;20369;-76
2023/08/19 01:39:45;;;;;;;0.00;0.00;;;;;;;;;;1049039;28;20143;-76
2023/08/19 01:40:16;;;;;;;0.40;0.40;;;;;;;;;;1050115;28;20024;-76
2023/08/19 01:40:47;;;;;;;0.10;0.10;;;;;;;;;;1049824;28;20492;-76
2023/08/19 01:41:19;;;;;;;0.13;0.13;;;;;;;;;;1045711;28;20090;-75
2023/08/19 01:41:50;;;;;;;0.50;0.30;;;;;;;;;;1045976;28;20021;-76
2023/08/19 01:42:21;;;;;;;1.80;1.15;;;;;;;;;;1046356;28;20160;-76
2023/08/19 01:42:53;;;;;;;0.38;0.38;;;;;;;;;;1046314;28;20028;-75
2023/08/19 01:43:24;;;;;;;0.00;0.00;;;;;;;;;;1050038;28;20407;-76
2023/08/19 01:43:57;;;;;;;0.55;0.55;;;;;;;;;;1050018;28;20028;-75
2023/08/19 01:44:28;;;;;;;0.00;0.00;;;;;;;;;;1050718;28;20467;-75
2023/08/19 01:44:59;;;;;;;0.00;0.00;;;;;;;;;;1049703;28;20047;-75
2023/08/19 01:45:30;;;;;;;0.47;0.47;;;;;;;;;;1049662;28;20110;-75
2023/08/19 01:46:00;;;;;;;0.38;0.35;;;;;;;;;;1047667;28;20023;-75
2023/08/19 01:46:31;;;;;;;0.52;0.52;;;;;;;;;;1050529;28;20035;-76
2023/08/19 01:47:11;;;;;;;0.15;0.03;;;;;;;;;;1049935;28;20529;-75
2023/08/19 01:47:45;;;;;;;0.00;0.00;;;;;;;;;;1049093;28;20024;-75
2023/08/19 01:48:16;;;;;;;0.70;0.70;;;;;;;;;;1050222;28;20027;-75
2023/08/19 01:48:46;;;;;;;0.00;0.00;;;;;;;;;;1049911;28;20027;-75
2023/08/19 01:49:17;;;;;;;0.00;0.00;;;;;;;;;;1048760;28;20463;-75
2023/08/19 01:49:47;;;;;;;0.52;0.52;;;;;;;;;;1049738;28;20458;-76
2023/08/19 01:50:18;;;;;;;0.25;0.25;;;;;;;;;;1050188;28;20071;-76
2023/08/19 01:50:48;;;;;;;0.22;0.10;;;;;;;;;;1047527;28;20016;-77
2023/08/19 01:51:19;;;;;;;0.00;0.00;;;;;;;;;;1051569;28;20480;-77
2023/08/19 01:51:49;;;;;;;0.10;0.10;;;;;;;;;;1045799;28;20032;-77
2023/08/19 01:52:20;;;;;;;0.00;0.00;;;;;;;;;;1045747;28;20025;-77
2023/08/19 01:52:50;;;;;;;1.70;1.60;;;;;;;;;;1045911;28;20488;-77
2023/08/19 01:53:20;;;;;;;0.55;0.55;;;;;;;;;;1045749;28;20031;-77
2023/08/19 01:53:51;;;;;;;0.68;0.68;;;;;;;;;;1045968;28;20025;-77
2023/08/19 01:54:21;;;;;;;0.00;0.00;;;;;;;;;;1046121;28;20028;-77
2023/08/19 01:54:52;;;;;;;0.10;0.10;;;;;;;;;;1041735;28;20124;-75
2023/08/19 01:55:22;;;;;;;3.13;1.65;;;;;;;;;;1044061;28;20024;-76
2023/08/19 01:55:53;;;;;;;1.38;0.65;;;;;;;;;;1044727;28;20021;-77
2023/08/19 01:56:23;;;;;;;0.68;0.65;;;;;;;;;;1050175;28;20029;-75
2023/08/19 01:56:54;;;;;;;0.00;0.00;;;;;;;;;;1050353;28;20032;-75
2023/08/19 01:57:27;;;;;;;0.00;0.00;;;;;;;;;;1049033;28;20432;-75
2023/08/19 01:57:58;;;;;;;1.17;0.98;;;;;;;;;;1050116;28;20016;-75
2023/08/19 01:58:28;;;;;;;0.70;0.47;;;;;;;;;;1050387;28;20024;-75
2023/08/19 01:58:59;;;;;;;0.25;0.20;;;;;;;;;;1050228;28;20104;-75
2023/08/19 01:59:29;;;;;;;0.00;0.00;;;;;;;;;;1049324;28;20078;-76
2023/08/19 01:59:59;;;;;;;0.00;0.00;;;;;;;;;;1050039;28;20058;-77
2023/08/19 02:00:30;;;;;;;0.32;0.32;;;;;;;;;;1050481;28;20016;-77
2023/08/19 02:01:00;;;;;;;8.25;0.80;;;;;;;;;;1049482;28;20028;-77
2023/08/19 02:01:31;;;;;;;0.00;0.00;;;;;;;;;;1049930;28;20028;-76
2023/08/19 02:02:01;;;;;;;1.02;0.38;;;;;;;;;;1049749;28;20058;-76
2023/08/19 02:02:32;;;;;;;0.00;0.00;;;;;;;;;;1050234;28;20025;-76
2023/08/19 02:03:03;;;;;;;1.85;1.75;;;;;;;;;;1048571;28;20050;-77
2023/08/19 02:03:33;;;;;;;1.67;0.57;;;;;;;;;;1049021;28;20028;-75
2023/08/19 02:04:03;;;;;;;0.38;0.20;;;;;;;;;;1050361;28;20110;-75
2023/08/19 02:04:34;;;;;;;1.45;1.10;;;;;;;;;;1050918;28;20109;-75
2023/08/19 02:05:05;;;;;;;0.00;0.00;;;;;;;;;;1049249;28;20074;-75
2023/08/19 02:05:35;;;;;;;0.00;0.00;;;;;;;;;;1050060;28;20032;-75
2023/08/19 02:06:06;;;;;;;0.30;0.30;;;;;;;;;;1045159;28;20071;-75
2023/08/19 02:06:36;;;;;;;2.45;1.92;;;;;;;;;;1045996;28;20020;-76
2023/08/19 02:07:06;;;;;;;1.17;0.57;;;;;;;;;;1050716;28;20075;-76
2023/08/19 02:07:37;;;;;;;1.08;0.55;;;;;;;;;;1044771;28;20021;-75
2023/08/19 02:08:07;;;;;;;0.65;0.65;;;;;;;;;;1049775;28;20506;-75
2023/08/19 02:08:38;;;;;;;0.98;0.47;;;;;;;;;;1050986;28;20477;-75
2023/08/19 02:09:08;;;;;;;0.50;0.28;;;;;;;;;;1049762;28;20125;-75
2023/08/19 02:09:40;;;;;;;0.00;0.00;;;;;;;;;;1049946;28;20118;-75
2023/08/19 02:10:12;;;;;;;1.65;0.75;;;;;;;;;;1049971;28;20034;-75
2023/08/19 02:10:45;;;;;;;0.00;0.00;;;;;;;;;;1046858;28;20024;-75
2023/08/19 02:11:16;;;;;;;1.08;1.05;;;;;;;;;;1039743;28;20113;-75
2023/08/19 02:11:46;;;;;;;0.00;0.00;;;;;;;;;;1046011;28;20021;-75
2023/08/19 02:12:16;;;;;;;0.90;0.40;;;;;;;;;;1046209;28;20111;-75
2023/08/19 02:12:47;;;;;;;0.20;0.20;;;;;;;;;;1049958;28;20033;-75
2023/08/19 02:13:17;;;;;;;0.47;0.40;;;;;;;;;;1050123;28;20507;-76
2023/08/19 02:13:48;;;;;;;0.65;0.13;;;;;;;;;;1049557;28;20618;-75
2023/08/19 02:14:18;;;;;;;0.52;0.45;;;;;;;;;;1046037;28;20469;-76
2023/08/19 02:14:49;;;;;;;0.08;0.08;;;;;;;;;;1041663;28;20499;-77
2023/08/19 02:15:19;;;;;;;1.00;0.82;;;;;;;;;;1041594;28;20116;-77
2023/08/19 02:15:50;;;;;;;0.68;0.40;;;;;;;;;;1041373;28;20167;-76
2023/08/19 02:16:20;;;;;;;0.20;0.03;;;;;;;;;;1043275;28;20921;-76
2023/08/19 02:16:50;;;;;;;0.20;0.10;;;;;;;;;;1049875;28;20070;-75
2023/08/19 02:17:21;;;;;;;0.68;0.38;;;;;;;;;;1049627;28;20383;-76
2023/08/19 02:17:52;;;;;;;0.30;0.30;;;;;;;;;;1049992;28;20032;-76
2023/08/19 02:18:22;;;;;;;0.00;0.00;;;;;;;;;;1049828;28;20073;-76
2023/08/19 02:18:53;;;;;;;0.28;0.20;;;;;;;;;;1049589;28;20069;-76
2023/08/19 02:19:23;;;;;;;0.05;0.05;;;;;;;;;;1048015;28;20024;-76
2023/08/19 02:19:53;;;;;;;1.55;0.90;;;;;;;;;;1049916;28;20109;-76
2023/08/19 02:20:24;;;;;;;0.10;0.10;;;;;;;;;;1049833;28;20071;-77
2023/08/19 02:20:54;;;;;;;1.83;0.93;;;;;;;;;;1044113;28;20028;-77
2023/08/19 02:21:25;;;;;;;0.57;0.32;;;;;;;;;;1048740;28;20492;-77
2023/08/19 02:21:56;;;;;;;1.20;0.55;;;;;;;;;;1049796;28;20369;-77
2023/08/19 02:22:26;;;;;;;0.20;0.13;;;;;;;;;;1050020;28;20050;-76
2023/08/19 02:22:58;;;;;;;1.63;0.52;;;;;;;;;;1049355;28;20027;-75
2023/08/19 02:23:29;;;;;;;0.90;0.80;;;;;;;;;;1048938;28;20060;-76
2023/08/19 02:23:59;;;;;;;0.82;0.80;;;;;;;;;;1050203;28;20016;-75
2023/08/19 02:24:30;;;;;;;0.00;0.00;;;;;;;;;;1050499;28;20028;-75
2023/08/19 02:25:00;;;;;;;0.82;0.52;;;;;;;;;;1050168;28;20020;-75
2023/08/19 02:25:31;;;;;;;0.00;0.00;;;;;;;;;;1050295;28;20050;-75
2023/08/19 02:26:01;;;;;;;0.43;0.20;;;;;;;;;;1049880;28;20020;-75
2023/08/19 02:26:31;;;;;;;0.40;0.10;;;;;;;;;;1049935;28;20028;-75
2023/08/19 02:27:02;;;;;;;2.65;0.55;;;;;;;;;;1049740;28;20024;-75
2023/08/19 02:27:33;;;;;;;0.68;0.68;;;;;;;;;;1050160;28;20073;-75
2023/08/19 02:28:04;;;;;;;0.63;0.63;;;;;;;;;;1049062;28;20025;-75
2023/08/19 02:28:34;;;;;;;0.20;0.20;;;;;;;;;;1049872;28;20380;-75
2023/08/19 02:29:05;;;;;;;0.70;0.70;;;;;;;;;;1042677;28;20036;-75
2023/08/19 02:29:35;;;;;;;0.20;0.00;;;;;;;;;;1043184;28;20025;-77
2023/08/19 02:30:06;;;;;;;0.28;0.20;;;;;;;;;;1039686;28;20030;-76
2023/08/19 02:30:36;;;;;;;0.10;0.10;;;;;;;;;;1041809;28;20083;-76
2023/08/19 02:31:07;;;;;;;0.38;0.38;;;;;;;;;;1040163;28;20056;-76
2023/08/19 02:31:38;;;;;;;0.05;0.00;;;;;;;;;;1045993;28;20026;-76
2023/08/19 02:32:08;;;;;;;1.88;0.90;;;;;;;;;;1050487;28;20021;-76
2023/08/19 02:32:40;;;;;;;1.95;1.58;;;;;;;;;;1050157;28;20025;-76
2023/08/19 02:33:11;;;;;;;0.00;0.00;;;;;;;;;;1052622;28;20119;-77
2023/08/19 02:33:41;;;;;;;0.00;0.00;;;;;;;;;;1049943;28;20017;-76
2023/08/19 02:34:12;;;;;;;0.30;0.30;;;;;;;;;;1044870;28;20074;-76
2023/08/19 02:34:42;;;;;;;0.35;0.17;;;;;;;;;;1043212;28;20025;-76
2023/08/19 02:35:12;;;;;;;2.17;0.52;;;;;;;;;;1043590;28;20028;-76
2023/08/19 02:35:43;;;;;;;3.97;1.02;;;;;;;;;;1045161;28;20075;-77
2023/08/19 02:36:13;;;;;;;0.17;0.17;;;;;;;;;;1049895;28;20912;-76
2023/08/19 02:36:44;;;;;;;0.22;0.13;;;;;;;;;;1049813;28;20418;-76
2023/08/19 02:37:14;;;;;;;0.22;0.13;;;;;;;;;;1048000;28;20021;-75
2023/08/19 02:37:45;;;;;;;1.73;1.23;;;;;;;;;;1049273;28;20017;-76
2023/08/19 02:38:15;;;;;;;0.85;0.73;;;;;;;;;;1050152;28;20054;-76
2023/08/19 02:38:46;;;;;;;0.00;0.00;;;;;;;;;;1045719;28;20046;-76
2023/08/19 02:39:16;;;;;;;0.10;0.10;;;;;;;;;;1043451;28;20122;-76
2023/08/19 02:39:47;;;;;;;1.17;1.08;;;;;;;;;;1045840;28;20104;-77
2023/08/19 02:40:17;;;;;;;0.05;0.00;;;;;;;;;;1050136;28;20025;-77
2023/08/19 02:40:51;;;;;;;0.10;0.10;;;;;;;;;;1050183;28;20023;-77
2023/08/19 02:41:21;;;;;;;0.47;0.20;;;;;;;;;;1050446;28;20043;-77
2023/08/19 02:41:52;;;;;;;0.40;0.20;;;;;;;;;;1049695;28;20559;-76
2023/08/19 02:42:22;;;;;;;0.30;0.20;;;;;;;;;;1049683;28;20035;-76
2023/08/19 02:42:53;;;;;;;0.90;0.65;;;;;;;;;;1049750;28;20021;-76
2023/08/19 02:43:23;;;;;;;4.30;0.57;;;;;;;;;;1045535;28;20086;-75
2023/08/19 02:43:54;;;;;;;1.27;1.17;;;;;;;;;;1049045;28;20053;-75
2023/08/19 02:44:25;;;;;;;0.45;0.43;;;;;;;;;;1049965;28;20027;-75
2023/08/19 02:44:57;;;;;;;1.55;1.45;;;;;;;;;;1049699;28;20480;-74
2023/08/19 02:45:27;;;;;;;2.30;1.00;;;;;;;;;;1050117;28;20529;-74
2023/08/19 02:45:58;;;;;;;0.30;0.22;;;;;;;;;;1049740;28;20070;-75
2023/08/19 02:46:28;;;;;;;0.40;0.40;;;;;;;;;;1048392;28;20195;-76
2023/08/19 02:46:58;;;;;;;0.75;0.20;;;;;;;;;;1047796;28;20388;-75
2023/08/19 02:47:29;;;;;;;1.38;0.55;;;;;;;;;;1048143;28;20040;-75
2023/08/19 02:47:59;;;;;;;1.45;1.35;;;;;;;;;;1047871;28;20029;-75
2023/08/19 02:48:30;;;;;;;1.65;0.32;;;;;;;;;;1048333;28;20068;-76
2023/08/19 02:49:01;;;;;;;1.52;1.25;;;;;;;;;;1047582;28;20440;-76
2023/08/19 02:49:31;;;;;;;0.10;0.10;;;;;;;;;;1047994;28;20024;-75
2023/08/19 02:50:02;;;;;;;0.63;0.25;;;;;;;;;;1047813;28;20657;-76
2023/08/19 02:50:33;;;;;;;1.23;0.30;;;;;;;;;;1047974;28;20373;-75
2023/08/19 02:51:03;;;;;;;0.25;0.15;;;;;;;;;;1043642;28;20555;-75
2023/08/19 02:51:33;;;;;;;0.45;0.38;;;;;;;;;;1043793;28;20048;-75
2023/08/19 02:52:05;;;;;;;0.90;0.30;;;;;;;;;;1043378;28;20029;-75
2023/08/19 02:52:35;;;;;;;0.00;0.00;;;;;;;;;;1039948;28;20070;-75
2023/08/19 02:53:06;;;;;;;0.03;0.00;;;;;;;;;;1043808;28;20366;-75
2023/08/19 02:53:36;;;;;;;0.00;0.00;;;;;;;;;;1048039;28;20101;-76
2023/08/19 02:54:06;;;;;;;0.98;0.22;;;;;;;;;;1047787;28;20021;-77
2023/08/19 02:54:37;;;;;;;0.20;0.20;;;;;;;;;;1047993;28;20396;-77
2023/08/19 02:55:07;;;;;;;0.25;0.13;;;;;;;;;;1047849;28;20025;-76
2023/08/19 02:55:41;;;;;;;0.35;0.20;;;;;;;;;;1043749;28;20082;-76
2023/08/19 02:56:11;;;;;;;0.75;0.75;;;;;;;;;;1044223;28;20469;-76
2023/08/19 02:56:42;;;;;;;0.55;0.20;;;;;;;;;;1023815;28;20054;-76
2023/08/19 02:57:12;;;;;;;0.20;0.20;;;;;;;;;;1035387;28;20037;-76
2023/08/19 02:57:43;;;;;;;0.00;0.00;;;;;;;;;;1035518;28;20090;-76
2023/08/19 02:58:13;;;;;;;0.20;0.10;;;;;;;;;;1035610;28;20507;-77
2023/08/19 02:58:44;;;;;;;0.95;0.65;;;;;;;;;;1035604;28;20034;-76
2023/08/19 02:59:14;;;;;;;0.65;0.65;;;;;;;;;;1039613;28;20033;-76
2023/08/19 02:59:45;;;;;;;0.10;0.10;;;;;;;;;;1039620;28;20033;-76
2023/08/19 03:00:15;;;;;;;0.17;0.17;;;;;;;;;;1039605;28;20029;-76
2023/08/19 03:00:46;;;;;;;0.30;0.30;;;;;;;;;;1039845;28;20393;-76
2023/08/19 03:01:17;;;;;;;1.13;1.13;;;;;;;;;;1035663;28;20046;-76
2023/08/19 03:01:48;;;;;;;3.10;0.95;;;;;;;;;;1039669;28;20433;-76
2023/08/19 03:02:18;;;;;;;1.17;0.45;;;;;;;;;;1039673;28;20029;-76
2023/08/19 03:02:49;;;;;;;0.10;0.10;;;;;;;;;;1039764;28;20025;-76
2023/08/19 03:03:19;;;;;;;0.47;0.47;;;;;;;;;;1040035;28;20477;-76
2023/08/19 03:03:50;;;;;;;1.75;1.13;;;;;;;;;;1040099;28;20029;-75
2023/08/19 03:04:20;;;;;;;0.10;0.10;;;;;;;;;;1039972;28;20037;-75
2023/08/19 03:04:51;;;;;;;0.20;0.15;;;;;;;;;;1039965;28;20116;-75
2023/08/19 03:05:21;;;;;;;0.10;0.10;;;;;;;;;;1039986;28;20025;-75
2023/08/19 03:05:52;;;;;;;0.20;0.10;;;;;;;;;;1040095;28;20079;-75
2023/08/19 03:06:22;;;;;;;0.70;0.30;;;;;;;;;;1039992;28;20033;-75
2023/08/19 03:06:52;;;;;;;0.15;0.13;;;;;;;;;;1039657;28;20017;-75
2023/08/19 03:07:23;;;;;;;0.10;0.10;;;;;;;;;;1035402;28;20033;-75
2023/08/19 03:07:53;;;;;;;2.85;2.65;;;;;;;;;;1035605;28;20414;-75